sensor_id;sensor_type;location;lat;lon;timestamp;P1;durP1;ratioP1;P2;durP2;ratioP2
12784;SDS011;6456;42.680;23.260;2022-12-11T00:02:06;20.57;;;15.10;;
12784;SDS011;6456;42.680;23.260;2022-12-11T00:04:33;17.33;;;14.10;;
12784;SDS011;6456;42.680;23.260;2022-12-11T00:07:00;20.50;;;12.90;;
12784;SDS011;6456;42.680;23.260;2022-12-11T00:09:27;17.57;;;12.07;;
12784;SDS011;6456;42.680;23.260;2022-12-11T00:11:55;16.90;;;11.93;;
12784;SDS011;6456;42.680;23.260;2022-12-11T00:14:22;17.10;;;12.63;;
12784;SDS011;6456;42.680;23.260;2022-12-11T00:16:50;19.83;;;13.53;;
12784;SDS011;6456;42.680;23.260;2022-12-11T00:19:17;24.17;;;15.03;;
12784;SDS011;6456;42.680;23.260;2022-12-11T00:21:44;16.50;;;13.23;;
12784;SDS011;6456;42.680;23.260;2022-12-11T00:24:11;16.27;;;11.63;;
12784;SDS011;6456;42.680;23.260;2022-12-11T00:26:38;17.03;;;11.77;;
12784;SDS011;6456;42.680;23.260;2022-12-11T00:29:08;14.40;;;10.47;;
12784;SDS011;6456;42.680;23.260;2022-12-11T00:31:38;14.77;;;9.37;;
12784;SDS011;6456;42.680;23.260;2022-12-11T00:34:07;16.93;;;9.87;;
12784;SDS011;6456;42.680;23.260;2022-12-11T00:36:36;15.77;;;10.13;;
12784;SDS011;6456;42.680;23.260;2022-12-11T00:39:04;16.47;;;9.90;;
12784;SDS011;6456;42.680;23.260;2022-12-11T00:41:31;11.77;;;9.33;;
12784;SDS011;6456;42.680;23.260;2022-12-11T00:43:58;12.03;;;9.70;;
12784;SDS011;6456;42.680;23.260;2022-12-11T00:46:25;13.90;;;10.17;;
12784;SDS011;6456;42.680;23.260;2022-12-11T00:48:52;15.63;;;10.73;;
12784;SDS011;6456;42.680;23.260;2022-12-11T00:51:20;19.03;;;11.87;;
12784;SDS011;6456;42.680;23.260;2022-12-11T00:53:47;20.13;;;12.73;;
12784;SDS011;6456;42.680;23.260;2022-12-11T00:56:15;15.63;;;11.40;;
12784;SDS011;6456;42.680;23.260;2022-12-11T00:58:47;15.97;;;11.50;;
12784;SDS011;6456;42.680;23.260;2022-12-11T01:01:16;13.00;;;10.97;;
12784;SDS011;6456;42.680;23.260;2022-12-11T01:03:45;15.00;;;11.30;;
12784;SDS011;6456;42.680;23.260;2022-12-11T01:06:13;14.83;;;11.17;;
12784;SDS011;6456;42.680;23.260;2022-12-11T01:08:48;13.60;;;10.67;;
12784;SDS011;6456;42.680;23.260;2022-12-11T01:11:36;13.10;;;9.13;;
12784;SDS011;6456;42.680;23.260;2022-12-11T01:14:02;12.80;;;8.83;;
12784;SDS011;6456;42.680;23.260;2022-12-11T01:16:30;16.63;;;8.83;;
12784;SDS011;6456;42.680;23.260;2022-12-11T01:18:57;12.90;;;8.70;;
12784;SDS011;6456;42.680;23.260;2022-12-11T01:21:25;8.50;;;7.23;;
12784;SDS011;6456;42.680;23.260;2022-12-11T01:23:53;8.40;;;3.93;;
12784;SDS011;6456;42.680;23.260;2022-12-11T01:26:21;10.10;;;6.17;;
12784;SDS011;6456;42.680;23.260;2022-12-11T01:28:48;14.50;;;7.80;;
12784;SDS011;6456;42.680;23.260;2022-12-11T01:31:16;7.67;;;5.40;;
12784;SDS011;6456;42.680;23.260;2022-12-11T01:33:45;6.40;;;5.07;;
12784;SDS011;6456;42.680;23.260;2022-12-11T01:36:13;13.60;;;7.23;;
12784;SDS011;6456;42.680;23.260;2022-12-11T01:38:43;7.40;;;5.93;;
12784;SDS011;6456;42.680;23.260;2022-12-11T01:41:12;8.37;;;3.60;;
12784;SDS011;6456;42.680;23.260;2022-12-11T01:43:55;1.67;;;1.40;;
12784;SDS011;6456;42.680;23.260;2022-12-11T01:46:23;0.40;;;0.40;;
12784;SDS011;6456;42.680;23.260;2022-12-11T01:48:50;0.20;;;0.20;;
12784;SDS011;6456;42.680;23.260;2022-12-11T01:51:19;0.50;;;0.23;;
12784;SDS011;6456;42.680;23.260;2022-12-11T01:53:47;0.33;;;0.30;;
12784;SDS011;6456;42.680;23.260;2022-12-11T01:56:24;0.60;;;0.60;;
12784;SDS011;6456;42.680;23.260;2022-12-11T01:58:52;0.40;;;0.40;;
12784;SDS011;6456;42.680;23.260;2022-12-11T02:01:25;0.47;;;0.27;;
12784;SDS011;6456;42.680;23.260;2022-12-11T02:03:57;0.40;;;0.30;;
12784;SDS011;6456;42.680;23.260;2022-12-11T02:06:35;2.30;;;0.60;;
12784;SDS011;6456;42.680;23.260;2022-12-11T02:09:03;1.30;;;0.27;;
12784;SDS011;6456;42.680;23.260;2022-12-11T02:11:37;0.63;;;0.33;;
12784;SDS011;6456;42.680;23.260;2022-12-11T02:14:15;0.77;;;0.40;;
12784;SDS011;6456;42.680;23.260;2022-12-11T02:16:53;0.77;;;0.30;;
12784;SDS011;6456;42.680;23.260;2022-12-11T02:19:30;2.30;;;0.50;;
12784;SDS011;6456;42.680;23.260;2022-12-11T02:22:18;0.60;;;0.50;;
12784;SDS011;6456;42.680;23.260;2022-12-11T02:24:57;0.57;;;0.40;;
12784;SDS011;6456;42.680;23.260;2022-12-11T02:27:36;2.00;;;0.47;;
12784;SDS011;6456;42.680;23.260;2022-12-11T02:30:12;1.43;;;0.87;;
12784;SDS011;6456;42.680;23.260;2022-12-11T02:32:42;1.83;;;0.73;;
12784;SDS011;6456;42.680;23.260;2022-12-11T02:35:14;3.30;;;1.03;;
12784;SDS011;6456;42.680;23.260;2022-12-11T02:37:45;1.70;;;1.10;;
12784;SDS011;6456;42.680;23.260;2022-12-11T02:40:16;3.17;;;1.30;;
12784;SDS011;6456;42.680;23.260;2022-12-11T02:42:47;1.77;;;1.00;;
12784;SDS011;6456;42.680;23.260;2022-12-11T02:45:21;2.40;;;0.90;;
12784;SDS011;6456;42.680;23.260;2022-12-11T02:47:49;0.70;;;0.70;;
12784;SDS011;6456;42.680;23.260;2022-12-11T02:50:18;2.00;;;0.80;;
12784;SDS011;6456;42.680;23.260;2022-12-11T02:52:49;1.27;;;0.80;;
12784;SDS011;6456;42.680;23.260;2022-12-11T02:55:19;0.83;;;0.70;;
12784;SDS011;6456;42.680;23.260;2022-12-11T02:57:50;2.10;;;0.87;;
12784;SDS011;6456;42.680;23.260;2022-12-11T03:00:19;0.83;;;0.80;;
12784;SDS011;6456;42.680;23.260;2022-12-11T03:02:50;1.13;;;0.60;;
12784;SDS011;6456;42.680;23.260;2022-12-11T03:05:17;1.03;;;0.60;;
12784;SDS011;6456;42.680;23.260;2022-12-11T03:07:44;3.37;;;0.60;;
12784;SDS011;6456;42.680;23.260;2022-12-11T03:10:12;1.33;;;0.60;;
12784;SDS011;6456;42.680;23.260;2022-12-11T03:12:41;0.70;;;0.70;;
12784;SDS011;6456;42.680;23.260;2022-12-11T03:15:11;0.83;;;0.70;;
12784;SDS011;6456;42.680;23.260;2022-12-11T03:17:43;0.63;;;0.60;;
12784;SDS011;6456;42.680;23.260;2022-12-11T03:20:21;1.50;;;0.70;;
12784;SDS011;6456;42.680;23.260;2022-12-11T03:23:01;0.63;;;0.60;;
12784;SDS011;6456;42.680;23.260;2022-12-11T03:25:35;1.50;;;0.90;;
12784;SDS011;6456;42.680;23.260;2022-12-11T03:28:10;1.03;;;0.60;;
12784;SDS011;6456;42.680;23.260;2022-12-11T03:30:41;0.93;;;0.60;;
12784;SDS011;6456;42.680;23.260;2022-12-11T03:33:12;1.40;;;0.87;;
12784;SDS011;6456;42.680;23.260;2022-12-11T03:35:47;1.53;;;0.90;;
12784;SDS011;6456;42.680;23.260;2022-12-11T03:38:17;1.83;;;0.73;;
12784;SDS011;6456;42.680;23.260;2022-12-11T03:40:49;3.40;;;0.90;;
12784;SDS011;6456;42.680;23.260;2022-12-11T03:43:20;2.20;;;1.07;;
12784;SDS011;6456;42.680;23.260;2022-12-11T03:45:47;1.73;;;1.10;;
12784;SDS011;6456;42.680;23.260;2022-12-11T03:48:17;2.23;;;0.87;;
12784;SDS011;6456;42.680;23.260;2022-12-11T03:50:47;1.90;;;0.83;;
12784;SDS011;6456;42.680;23.260;2022-12-11T03:53:15;1.63;;;1.10;;
12784;SDS011;6456;42.680;23.260;2022-12-11T03:55:43;1.47;;;0.93;;
12784;SDS011;6456;42.680;23.260;2022-12-11T03:58:11;1.63;;;0.90;;
12784;SDS011;6456;42.680;23.260;2022-12-11T04:00:38;3.17;;;1.00;;
12784;SDS011;6456;42.680;23.260;2022-12-11T04:03:05;1.17;;;0.80;;
12784;SDS011;6456;42.680;23.260;2022-12-11T04:05:38;2.20;;;0.90;;
12784;SDS011;6456;42.680;23.260;2022-12-11T04:08:07;2.33;;;1.57;;
12784;SDS011;6456;42.680;23.260;2022-12-11T04:10:34;1.60;;;0.90;;
12784;SDS011;6456;42.680;23.260;2022-12-11T04:13:01;1.90;;;1.00;;
12784;SDS011;6456;42.680;23.260;2022-12-11T04:15:28;1.20;;;1.10;;
12784;SDS011;6456;42.680;23.260;2022-12-11T04:17:54;4.47;;;1.33;;
12784;SDS011;6456;42.680;23.260;2022-12-11T04:20:38;1.13;;;1.00;;
12784;SDS011;6456;42.680;23.260;2022-12-11T04:23:24;3.33;;;1.10;;
12784;SDS011;6456;42.680;23.260;2022-12-11T04:26:09;1.97;;;1.30;;
12784;SDS011;6456;42.680;23.260;2022-12-11T04:28:37;2.20;;;1.10;;
12784;SDS011;6456;42.680;23.260;2022-12-11T04:31:05;2.10;;;1.20;;
12784;SDS011;6456;42.680;23.260;2022-12-11T04:33:35;2.90;;;1.20;;
12784;SDS011;6456;42.680;23.260;2022-12-11T04:36:03;1.87;;;1.37;;
12784;SDS011;6456;42.680;23.260;2022-12-11T04:38:32;1.57;;;1.00;;
12784;SDS011;6456;42.680;23.260;2022-12-11T04:40:59;1.20;;;0.87;;
12784;SDS011;6456;42.680;23.260;2022-12-11T04:43:27;3.70;;;1.20;;
12784;SDS011;6456;42.680;23.260;2022-12-11T04:45:59;2.50;;;1.20;;
12784;SDS011;6456;42.680;23.260;2022-12-11T04:48:27;2.73;;;0.90;;
12784;SDS011;6456;42.680;23.260;2022-12-11T04:50:54;1.00;;;0.73;;
12784;SDS011;6456;42.680;23.260;2022-12-11T04:53:21;1.70;;;0.90;;
12784;SDS011;6456;42.680;23.260;2022-12-11T04:55:49;0.80;;;0.80;;
12784;SDS011;6456;42.680;23.260;2022-12-11T04:58:16;3.17;;;1.10;;
12784;SDS011;6456;42.680;23.260;2022-12-11T05:00:43;2.20;;;0.93;;
12784;SDS011;6456;42.680;23.260;2022-12-11T05:03:10;1.00;;;0.90;;
12784;SDS011;6456;42.680;23.260;2022-12-11T05:05:37;1.30;;;0.80;;
12784;SDS011;6456;42.680;23.260;2022-12-11T05:08:04;1.57;;;0.70;;
12784;SDS011;6456;42.680;23.260;2022-12-11T05:10:31;2.07;;;1.13;;
12784;SDS011;6456;42.680;23.260;2022-12-11T05:12:59;2.27;;;1.20;;
12784;SDS011;6456;42.680;23.260;2022-12-11T05:15:26;4.10;;;1.10;;
12784;SDS011;6456;42.680;23.260;2022-12-11T05:17:53;4.93;;;1.57;;
12784;SDS011;6456;42.680;23.260;2022-12-11T05:20:20;3.10;;;1.50;;
12784;SDS011;6456;42.680;23.260;2022-12-11T05:22:47;2.20;;;1.60;;
12784;SDS011;6456;42.680;23.260;2022-12-11T05:25:14;4.33;;;1.20;;
12784;SDS011;6456;42.680;23.260;2022-12-11T05:27:41;4.37;;;1.53;;
12784;SDS011;6456;42.680;23.260;2022-12-11T05:30:10;5.17;;;1.30;;
12784;SDS011;6456;42.680;23.260;2022-12-11T05:32:37;2.93;;;1.40;;
12784;SDS011;6456;42.680;23.260;2022-12-11T05:35:04;3.43;;;1.20;;
12784;SDS011;6456;42.680;23.260;2022-12-11T05:37:32;2.87;;;1.13;;
12784;SDS011;6456;42.680;23.260;2022-12-11T05:39:59;2.10;;;1.30;;
12784;SDS011;6456;42.680;23.260;2022-12-11T05:42:26;3.27;;;1.40;;
12784;SDS011;6456;42.680;23.260;2022-12-11T05:44:53;2.33;;;1.07;;
12784;SDS011;6456;42.680;23.260;2022-12-11T05:47:22;3.47;;;1.47;;
12784;SDS011;6456;42.680;23.260;2022-12-11T05:49:49;5.03;;;2.13;;
12784;SDS011;6456;42.680;23.260;2022-12-11T05:52:16;3.90;;;1.87;;
12784;SDS011;6456;42.680;23.260;2022-12-11T05:54:44;5.97;;;1.53;;
12784;SDS011;6456;42.680;23.260;2022-12-11T05:57:14;4.33;;;2.30;;
12784;SDS011;6456;42.680;23.260;2022-12-11T05:59:41;4.10;;;1.33;;
12784;SDS011;6456;42.680;23.260;2022-12-11T06:02:09;1.90;;;1.30;;
12784;SDS011;6456;42.680;23.260;2022-12-11T06:04:38;3.20;;;1.20;;
12784;SDS011;6456;42.680;23.260;2022-12-11T06:07:05;2.57;;;1.60;;
12784;SDS011;6456;42.680;23.260;2022-12-11T06:09:32;2.03;;;1.10;;
12784;SDS011;6456;42.680;23.260;2022-12-11T06:11:59;1.93;;;1.20;;
12784;SDS011;6456;42.680;23.260;2022-12-11T06:14:27;1.90;;;1.20;;
12784;SDS011;6456;42.680;23.260;2022-12-11T06:16:54;1.63;;;0.90;;
12784;SDS011;6456;42.680;23.260;2022-12-11T06:19:20;2.80;;;1.37;;
12784;SDS011;6456;42.680;23.260;2022-12-11T06:21:49;2.83;;;1.10;;
12784;SDS011;6456;42.680;23.260;2022-12-11T06:24:16;0.80;;;0.80;;
12784;SDS011;6456;42.680;23.260;2022-12-11T06:26:43;5.03;;;1.13;;
12784;SDS011;6456;42.680;23.260;2022-12-11T06:29:10;1.80;;;0.90;;
12784;SDS011;6456;42.680;23.260;2022-12-11T06:31:37;1.90;;;1.10;;
12784;SDS011;6456;42.680;23.260;2022-12-11T06:34:03;1.23;;;1.00;;
12784;SDS011;6456;42.680;23.260;2022-12-11T06:36:30;2.27;;;1.13;;
12784;SDS011;6456;42.680;23.260;2022-12-11T06:38:59;5.73;;;1.10;;
12784;SDS011;6456;42.680;23.260;2022-12-11T06:41:26;2.67;;;1.00;;
12784;SDS011;6456;42.680;23.260;2022-12-11T06:43:53;4.27;;;0.90;;
12784;SDS011;6456;42.680;23.260;2022-12-11T06:46:20;1.37;;;1.00;;
12784;SDS011;6456;42.680;23.260;2022-12-11T06:48:47;1.00;;;0.77;;
12784;SDS011;6456;42.680;23.260;2022-12-11T06:51:15;1.57;;;1.10;;
12784;SDS011;6456;42.680;23.260;2022-12-11T06:53:44;1.63;;;0.90;;
12784;SDS011;6456;42.680;23.260;2022-12-11T06:56:17;1.90;;;1.10;;
12784;SDS011;6456;42.680;23.260;2022-12-11T06:58:44;1.80;;;0.90;;
12784;SDS011;6456;42.680;23.260;2022-12-11T07:01:12;2.10;;;1.30;;
12784;SDS011;6456;42.680;23.260;2022-12-11T07:03:41;3.20;;;1.57;;
12784;SDS011;6456;42.680;23.260;2022-12-11T07:06:08;1.90;;;1.10;;
12784;SDS011;6456;42.680;23.260;2022-12-11T07:08:35;3.70;;;1.40;;
12784;SDS011;6456;42.680;23.260;2022-12-11T07:11:03;4.23;;;1.40;;
12784;SDS011;6456;42.680;23.260;2022-12-11T07:13:33;4.37;;;1.50;;
12784;SDS011;6456;42.680;23.260;2022-12-11T07:16:02;2.73;;;1.40;;
12784;SDS011;6456;42.680;23.260;2022-12-11T07:18:34;3.50;;;1.47;;
12784;SDS011;6456;42.680;23.260;2022-12-11T07:21:01;3.57;;;1.53;;
12784;SDS011;6456;42.680;23.260;2022-12-11T07:23:28;2.20;;;1.20;;
12784;SDS011;6456;42.680;23.260;2022-12-11T07:25:55;4.07;;;1.33;;
12784;SDS011;6456;42.680;23.260;2022-12-11T07:28:23;3.43;;;1.50;;
12784;SDS011;6456;42.680;23.260;2022-12-11T07:30:51;5.37;;;1.70;;
12784;SDS011;6456;42.680;23.260;2022-12-11T07:33:18;2.03;;;1.30;;
12784;SDS011;6456;42.680;23.260;2022-12-11T07:35:45;4.37;;;1.60;;
12784;SDS011;6456;42.680;23.260;2022-12-11T07:38:12;3.50;;;1.50;;
12784;SDS011;6456;42.680;23.260;2022-12-11T07:40:39;2.83;;;1.73;;
12784;SDS011;6456;42.680;23.260;2022-12-11T07:43:06;4.87;;;1.67;;
12784;SDS011;6456;42.680;23.260;2022-12-11T07:45:33;2.23;;;1.10;;
12784;SDS011;6456;42.680;23.260;2022-12-11T07:48:01;2.53;;;1.40;;
12784;SDS011;6456;42.680;23.260;2022-12-11T07:50:29;2.13;;;1.00;;
12784;SDS011;6456;42.680;23.260;2022-12-11T07:52:55;2.57;;;1.00;;
12784;SDS011;6456;42.680;23.260;2022-12-11T07:55:22;2.10;;;1.20;;
12784;SDS011;6456;42.680;23.260;2022-12-11T07:57:49;2.47;;;1.00;;
12784;SDS011;6456;42.680;23.260;2022-12-11T08:00:17;6.70;;;1.73;;
12784;SDS011;6456;42.680;23.260;2022-12-11T08:02:44;2.27;;;1.30;;
12784;SDS011;6456;42.680;23.260;2022-12-11T08:05:12;2.77;;;1.70;;
12784;SDS011;6456;42.680;23.260;2022-12-11T08:07:39;1.57;;;1.10;;
12784;SDS011;6456;42.680;23.260;2022-12-11T08:10:06;3.03;;;1.30;;
12784;SDS011;6456;42.680;23.260;2022-12-11T08:12:34;2.77;;;1.53;;
12784;SDS011;6456;42.680;23.260;2022-12-11T08:15:01;2.73;;;1.10;;
12784;SDS011;6456;42.680;23.260;2022-12-11T08:17:28;5.17;;;3.13;;
12784;SDS011;6456;42.680;23.260;2022-12-11T08:19:55;2.03;;;1.63;;
12784;SDS011;6456;42.680;23.260;2022-12-11T08:22:23;1.10;;;1.00;;
12784;SDS011;6456;42.680;23.260;2022-12-11T08:24:50;2.03;;;1.20;;
12784;SDS011;6456;42.680;23.260;2022-12-11T08:27:22;3.97;;;1.50;;
12784;SDS011;6456;42.680;23.260;2022-12-11T08:30:01;2.30;;;1.33;;
12784;SDS011;6456;42.680;23.260;2022-12-11T08:32:28;1.20;;;1.10;;
12784;SDS011;6456;42.680;23.260;2022-12-11T08:34:55;3.03;;;1.33;;
12784;SDS011;6456;42.680;23.260;2022-12-11T08:37:27;2.50;;;1.33;;
12784;SDS011;6456;42.680;23.260;2022-12-11T08:39:57;2.87;;;1.30;;
12784;SDS011;6456;42.680;23.260;2022-12-11T08:42:27;3.67;;;1.70;;
12784;SDS011;6456;42.680;23.260;2022-12-11T08:44:54;1.30;;;1.20;;
12784;SDS011;6456;42.680;23.260;2022-12-11T08:47:25;1.70;;;1.40;;
12784;SDS011;6456;42.680;23.260;2022-12-11T08:49:53;2.20;;;1.70;;
12784;SDS011;6456;42.680;23.260;2022-12-11T08:52:21;4.57;;;1.87;;
12784;SDS011;6456;42.680;23.260;2022-12-11T08:54:57;3.73;;;1.67;;
12784;SDS011;6456;42.680;23.260;2022-12-11T08:57:24;5.37;;;2.00;;
12784;SDS011;6456;42.680;23.260;2022-12-11T08:59:53;3.40;;;1.10;;
12784;SDS011;6456;42.680;23.260;2022-12-11T09:02:19;3.50;;;1.60;;
12784;SDS011;6456;42.680;23.260;2022-12-11T09:04:46;3.07;;;1.47;;
12784;SDS011;6456;42.680;23.260;2022-12-11T09:07:13;2.47;;;1.67;;
12784;SDS011;6456;42.680;23.260;2022-12-11T09:09:41;3.07;;;1.60;;
12784;SDS011;6456;42.680;23.260;2022-12-11T09:14:57;4.43;;;1.80;;
12784;SDS011;6456;42.680;23.260;2022-12-11T09:17:24;2.27;;;1.60;;
12784;SDS011;6456;42.680;23.260;2022-12-11T09:19:53;2.33;;;1.60;;
12784;SDS011;6456;42.680;23.260;2022-12-11T09:22:20;2.77;;;1.73;;
12784;SDS011;6456;42.680;23.260;2022-12-11T09:24:47;4.87;;;1.90;;
12784;SDS011;6456;42.680;23.260;2022-12-11T09:27:14;1.63;;;1.40;;
12784;SDS011;6456;42.680;23.260;2022-12-11T09:29:43;1.47;;;1.37;;
12784;SDS011;6456;42.680;23.260;2022-12-11T09:32:10;1.30;;;1.20;;
12784;SDS011;6456;42.680;23.260;2022-12-11T09:34:37;4.23;;;1.80;;
12784;SDS011;6456;42.680;23.260;2022-12-11T09:37:04;2.37;;;1.50;;
12784;SDS011;6456;42.680;23.260;2022-12-11T09:39:30;2.00;;;1.67;;
12784;SDS011;6456;42.680;23.260;2022-12-11T09:41:59;2.83;;;1.70;;
12784;SDS011;6456;42.680;23.260;2022-12-11T09:44:33;2.73;;;1.30;;
12784;SDS011;6456;42.680;23.260;2022-12-11T09:47:15;2.83;;;1.80;;
12784;SDS011;6456;42.680;23.260;2022-12-11T09:49:46;2.70;;;1.60;;
12784;SDS011;6456;42.680;23.260;2022-12-11T09:52:19;2.53;;;1.43;;
12784;SDS011;6456;42.680;23.260;2022-12-11T09:54:49;2.47;;;1.37;;
12784;SDS011;6456;42.680;23.260;2022-12-11T09:57:24;3.63;;;1.47;;
12784;SDS011;6456;42.680;23.260;2022-12-11T10:00:16;2.37;;;1.60;;
12784;SDS011;6456;42.680;23.260;2022-12-11T10:02:53;4.00;;;1.40;;
12784;SDS011;6456;42.680;23.260;2022-12-11T10:05:41;2.20;;;1.37;;
12784;SDS011;6456;42.680;23.260;2022-12-11T10:08:16;3.63;;;1.63;;
12784;SDS011;6456;42.680;23.260;2022-12-11T10:10:52;1.80;;;1.40;;
12784;SDS011;6456;42.680;23.260;2022-12-11T10:13:29;4.10;;;1.53;;
12784;SDS011;6456;42.680;23.260;2022-12-11T10:16:08;1.80;;;1.30;;
12784;SDS011;6456;42.680;23.260;2022-12-11T10:18:46;1.90;;;1.63;;
12784;SDS011;6456;42.680;23.260;2022-12-11T10:21:14;2.33;;;1.60;;
12784;SDS011;6456;42.680;23.260;2022-12-11T10:23:45;1.83;;;1.20;;
12784;SDS011;6456;42.680;23.260;2022-12-11T10:26:18;2.77;;;1.00;;
12784;SDS011;6456;42.680;23.260;2022-12-11T10:28:46;2.80;;;1.30;;
12784;SDS011;6456;42.680;23.260;2022-12-11T10:31:15;3.27;;;1.40;;
12784;SDS011;6456;42.680;23.260;2022-12-11T10:33:51;3.20;;;1.53;;
12784;SDS011;6456;42.680;23.260;2022-12-11T10:36:26;2.90;;;1.70;;
12784;SDS011;6456;42.680;23.260;2022-12-11T10:38:54;2.60;;;1.40;;
12784;SDS011;6456;42.680;23.260;2022-12-11T10:41:22;2.43;;;1.50;;
12784;SDS011;6456;42.680;23.260;2022-12-11T10:43:57;1.57;;;1.30;;
12784;SDS011;6456;42.680;23.260;2022-12-11T10:46:26;3.80;;;1.60;;
12784;SDS011;6456;42.680;23.260;2022-12-11T10:48:59;1.90;;;1.30;;
12784;SDS011;6456;42.680;23.260;2022-12-11T10:51:32;1.77;;;1.33;;
12784;SDS011;6456;42.680;23.260;2022-12-11T10:54:01;3.57;;;1.50;;
12784;SDS011;6456;42.680;23.260;2022-12-11T10:56:33;1.57;;;1.40;;
12784;SDS011;6456;42.680;23.260;2022-12-11T10:59:05;1.60;;;1.33;;
12784;SDS011;6456;42.680;23.260;2022-12-11T11:01:32;3.53;;;2.20;;
12784;SDS011;6456;42.680;23.260;2022-12-11T11:04:01;1.47;;;1.27;;
12784;SDS011;6456;42.680;23.260;2022-12-11T11:06:33;2.63;;;1.47;;
12784;SDS011;6456;42.680;23.260;2022-12-11T11:09:00;1.60;;;1.30;;
12784;SDS011;6456;42.680;23.260;2022-12-11T11:11:29;3.80;;;1.60;;
12784;SDS011;6456;42.680;23.260;2022-12-11T11:14:04;1.87;;;1.30;;
12784;SDS011;6456;42.680;23.260;2022-12-11T11:16:34;4.07;;;1.40;;
12784;SDS011;6456;42.680;23.260;2022-12-11T11:19:04;4.23;;;1.70;;
12784;SDS011;6456;42.680;23.260;2022-12-11T11:21:33;2.27;;;1.10;;
12784;SDS011;6456;42.680;23.260;2022-12-11T11:24:01;1.33;;;1.20;;
12784;SDS011;6456;42.680;23.260;2022-12-11T11:26:30;2.37;;;1.40;;
12784;SDS011;6456;42.680;23.260;2022-12-11T11:28:58;3.30;;;1.87;;
12784;SDS011;6456;42.680;23.260;2022-12-11T11:31:29;1.43;;;1.33;;
12784;SDS011;6456;42.680;23.260;2022-12-11T11:33:58;2.77;;;1.53;;
12784;SDS011;6456;42.680;23.260;2022-12-11T11:36:36;1.60;;;1.43;;
12784;SDS011;6456;42.680;23.260;2022-12-11T11:39:14;3.67;;;1.30;;
12784;SDS011;6456;42.680;23.260;2022-12-11T11:41:48;2.27;;;1.23;;
12784;SDS011;6456;42.680;23.260;2022-12-11T11:44:23;1.63;;;1.53;;
12784;SDS011;6456;42.680;23.260;2022-12-11T11:46:57;3.23;;;1.50;;
12784;SDS011;6456;42.680;23.260;2022-12-11T11:49:31;5.57;;;1.63;;
12784;SDS011;6456;42.680;23.260;2022-12-11T11:55:13;2.40;;;1.47;;
12784;SDS011;6456;42.680;23.260;2022-12-11T11:57:46;2.27;;;1.60;;
12784;SDS011;6456;42.680;23.260;2022-12-11T12:00:53;3.93;;;1.50;;
12784;SDS011;6456;42.680;23.260;2022-12-11T12:06:29;2.87;;;1.60;;
12784;SDS011;6456;42.680;23.260;2022-12-11T12:09:43;4.23;;;1.83;;
12784;SDS011;6456;42.680;23.260;2022-12-11T12:17:39;5.53;;;1.93;;
12784;SDS011;6456;42.680;23.260;2022-12-11T12:19:48;1.63;;;1.53;;
12784;SDS011;6456;42.680;23.260;2022-12-11T12:31:11;2.80;;;1.63;;
12784;SDS011;6456;42.680;23.260;2022-12-11T12:33:50;3.63;;;2.00;;
12784;SDS011;6456;42.680;23.260;2022-12-11T12:36:24;5.23;;;1.80;;
12784;SDS011;6456;42.680;23.260;2022-12-11T12:39:00;3.03;;;1.83;;
12784;SDS011;6456;42.680;23.260;2022-12-11T12:41:34;1.60;;;1.50;;
12784;SDS011;6456;42.680;23.260;2022-12-11T12:44:15;1.60;;;1.50;;
12784;SDS011;6456;42.680;23.260;2022-12-11T12:46:50;1.50;;;1.40;;
12784;SDS011;6456;42.680;23.260;2022-12-11T12:49:36;1.50;;;1.40;;
12784;SDS011;6456;42.680;23.260;2022-12-11T12:52:09;1.50;;;1.40;;
12784;SDS011;6456;42.680;23.260;2022-12-11T12:54:41;1.70;;;1.10;;
12784;SDS011;6456;42.680;23.260;2022-12-11T12:57:31;2.97;;;1.87;;
12784;SDS011;6456;42.680;23.260;2022-12-11T13:00:00;3.47;;;1.50;;
12784;SDS011;6456;42.680;23.260;2022-12-11T13:02:30;3.07;;;1.30;;
12784;SDS011;6456;42.680;23.260;2022-12-11T13:04:59;2.10;;;1.27;;
12784;SDS011;6456;42.680;23.260;2022-12-11T13:07:31;1.53;;;1.43;;
12784;SDS011;6456;42.680;23.260;2022-12-11T13:10:03;2.13;;;1.40;;
12784;SDS011;6456;42.680;23.260;2022-12-11T13:12:44;1.33;;;1.23;;
12784;SDS011;6456;42.680;23.260;2022-12-11T13:18:29;1.47;;;1.37;;
12784;SDS011;6456;42.680;23.260;2022-12-11T13:20:56;2.03;;;1.13;;
12784;SDS011;6456;42.680;23.260;2022-12-11T13:23:28;1.33;;;1.20;;
12784;SDS011;6456;42.680;23.260;2022-12-11T13:25:56;1.27;;;1.10;;
12784;SDS011;6456;42.680;23.260;2022-12-11T13:28:26;3.80;;;1.13;;
12784;SDS011;6456;42.680;23.260;2022-12-11T13:30:59;1.10;;;1.00;;
12784;SDS011;6456;42.680;23.260;2022-12-11T13:33:30;1.97;;;1.17;;
12784;SDS011;6456;42.680;23.260;2022-12-11T13:38:52;1.20;;;1.13;;
12784;SDS011;6456;42.680;23.260;2022-12-11T13:41:22;1.10;;;1.10;;
12784;SDS011;6456;42.680;23.260;2022-12-11T13:43:49;1.87;;;1.53;;
12784;SDS011;6456;42.680;23.260;2022-12-11T13:46:18;1.40;;;1.30;;
12784;SDS011;6456;42.680;23.260;2022-12-11T13:48:52;1.87;;;1.30;;
12784;SDS011;6456;42.680;23.260;2022-12-11T13:51:25;1.00;;;1.00;;
12784;SDS011;6456;42.680;23.260;2022-12-11T13:54:10;1.10;;;1.10;;
12784;SDS011;6456;42.680;23.260;2022-12-11T13:56:40;1.80;;;1.50;;
12784;SDS011;6456;42.680;23.260;2022-12-11T13:59:22;2.40;;;1.57;;
12784;SDS011;6456;42.680;23.260;2022-12-11T14:01:53;1.23;;;1.13;;
12784;SDS011;6456;42.680;23.260;2022-12-11T14:04:23;1.70;;;1.60;;
12784;SDS011;6456;42.680;23.260;2022-12-11T14:06:52;1.50;;;1.40;;
12784;SDS011;6456;42.680;23.260;2022-12-11T14:09:21;2.20;;;2.00;;
12784;SDS011;6456;42.680;23.260;2022-12-11T14:11:50;3.17;;;2.87;;
12784;SDS011;6456;42.680;23.260;2022-12-11T14:14:21;2.57;;;1.80;;
12784;SDS011;6456;42.680;23.260;2022-12-11T14:16:52;1.93;;;1.70;;
12784;SDS011;6456;42.680;23.260;2022-12-11T14:19:20;1.47;;;1.37;;
12784;SDS011;6456;42.680;23.260;2022-12-11T14:22:00;1.30;;;1.20;;
12784;SDS011;6456;42.680;23.260;2022-12-11T14:24:29;1.60;;;1.37;;
12784;SDS011;6456;42.680;23.260;2022-12-11T14:26:57;2.23;;;1.20;;
12784;SDS011;6456;42.680;23.260;2022-12-11T14:29:25;1.30;;;1.20;;
12784;SDS011;6456;42.680;23.260;2022-12-11T14:31:58;1.30;;;1.20;;
12784;SDS011;6456;42.680;23.260;2022-12-11T14:34:31;1.73;;;1.30;;
12784;SDS011;6456;42.680;23.260;2022-12-11T14:37:04;0.70;;;0.70;;
12784;SDS011;6456;42.680;23.260;2022-12-11T14:39:33;0.80;;;0.80;;
12784;SDS011;6456;42.680;23.260;2022-12-11T14:42:05;0.70;;;0.70;;
12784;SDS011;6456;42.680;23.260;2022-12-11T14:44:37;1.30;;;1.20;;
12784;SDS011;6456;42.680;23.260;2022-12-11T14:47:12;1.57;;;1.47;;
12784;SDS011;6456;42.680;23.260;2022-12-11T14:49:44;1.87;;;1.50;;
12784;SDS011;6456;42.680;23.260;2022-12-11T14:52:20;0.90;;;0.90;;
12784;SDS011;6456;42.680;23.260;2022-12-11T14:54:52;1.07;;;1.00;;
12784;SDS011;6456;42.680;23.260;2022-12-11T14:57:28;1.50;;;1.30;;
12784;SDS011;6456;42.680;23.260;2022-12-11T14:59:58;1.00;;;1.00;;
12784;SDS011;6456;42.680;23.260;2022-12-11T15:02:27;1.07;;;1.00;;
12784;SDS011;6456;42.680;23.260;2022-12-11T15:05:12;1.03;;;1.00;;
12784;SDS011;6456;42.680;23.260;2022-12-11T15:07:52;2.37;;;1.80;;
12784;SDS011;6456;42.680;23.260;2022-12-11T15:10:21;0.97;;;0.97;;
12784;SDS011;6456;42.680;23.260;2022-12-11T15:12:50;0.90;;;0.90;;
12784;SDS011;6456;42.680;23.260;2022-12-11T15:15:17;1.40;;;1.27;;
12784;SDS011;6456;42.680;23.260;2022-12-11T15:17:46;1.37;;;1.27;;
12784;SDS011;6456;42.680;23.260;2022-12-11T15:20:22;2.37;;;1.80;;
12784;SDS011;6456;42.680;23.260;2022-12-11T15:22:53;1.30;;;1.20;;
12784;SDS011;6456;42.680;23.260;2022-12-11T15:25:23;0.97;;;0.97;;
12784;SDS011;6456;42.680;23.260;2022-12-11T15:27:52;1.23;;;1.13;;
12784;SDS011;6456;42.680;23.260;2022-12-11T15:30:28;1.47;;;1.10;;
12784;SDS011;6456;42.680;23.260;2022-12-11T15:33:02;1.00;;;1.00;;
12784;SDS011;6456;42.680;23.260;2022-12-11T15:35:50;1.67;;;1.57;;